createdAt,value
2018-01-24T00:00:32.569Z,1015.54
2018-01-24T00:02:33.488Z,1015.48
2018-01-24T00:03:32.956Z,1015.44
2018-01-24T00:05:33.971Z,1015.42
2018-01-24T00:06:34.030Z,1015.43
2018-01-24T00:08:35.352Z,1015.41
2018-01-24T00:09:34.815Z,1015.38
2018-01-24T00:11:35.843Z,1015.43
2018-01-24T00:12:34.938Z,1015.36
2018-01-24T00:14:32.260Z,1015.36
2018-01-24T00:15:30.745Z,1015.37
2018-01-24T00:17:31.848Z,1015.42
2018-01-24T00:18:31.187Z,1015.39
2018-01-24T00:20:32.226Z,1015.44
2018-01-24T00:21:31.627Z,1015.48
2018-01-24T00:23:33.212Z,1015.45
2018-01-24T00:24:32.129Z,1015.45
2018-01-24T00:26:38.098Z,1015.52
2018-01-24T00:27:38.105Z,1015.60
2018-01-24T00:29:46.091Z,1015.54
2018-01-24T00:30:46.108Z,1015.46
2018-01-24T00:32:47.106Z,1015.48
2018-01-24T00:33:47.176Z,1015.46
2018-01-24T00:35:49.427Z,1015.45
2018-01-24T00:39:03.480Z,1015.44
2018-01-24T00:39:48.968Z,1015.43
2018-01-24T00:41:54.858Z,1015.42
2018-01-24T00:42:53.810Z,1015.39
2018-01-24T00:44:58.977Z,1015.34
2018-01-24T00:45:57.955Z,1015.38
2018-01-24T00:47:59.331Z,1015.30
2018-01-24T00:48:58.785Z,1015.30
2018-01-24T00:51:01.838Z,1015.25
2018-01-24T00:52:04.211Z,1015.21
2018-01-24T00:54:09.839Z,1015.20
2018-01-24T00:55:26.967Z,1015.21
2018-01-24T00:57:43.845Z,1015.23
2018-01-24T00:58:42.770Z,1015.23
2018-01-24T01:01:28.692Z,1015.19
2018-01-24T01:02:00.314Z,1015.18
2018-01-24T01:04:14.504Z,1015.23
2018-01-24T01:05:12.971Z,1015.26
2018-01-24T01:08:00.686Z,1015.23
2018-01-24T01:08:39.214Z,1015.28
2018-01-24T01:10:53.660Z,1015.27
2018-01-24T01:12:07.325Z,1015.30
2018-01-24T01:14:01.407Z,1015.31
2018-01-24T01:15:00.202Z,1015.31
2018-01-24T01:17:12.901Z,1015.29
2018-01-24T01:19:59.170Z,1015.23
2018-01-24T01:21:00.947Z,1015.23
2018-01-24T01:25:26.113Z,1015.19
2018-01-24T01:28:41.181Z,1015.19
2018-01-24T01:31:01.449Z,1015.13
2018-01-24T01:32:03.288Z,1015.13
2018-01-24T01:34:18.436Z,1015.11
2018-01-24T01:35:17.381Z,1015.07
2018-01-24T01:37:39.538Z,1015.13
2018-01-24T01:38:37.261Z,1015.08
2018-01-24T01:40:49.349Z,1015.12
2018-01-24T01:41:49.433Z,1015.12
2018-01-24T01:43:56.878Z,1015.13
2018-01-24T01:44:55.421Z,1015.04
2018-01-24T01:47:08.755Z,1015.05
2018-01-24T01:47:58.414Z,1015.03
2018-01-24T01:51:10.230Z,1015.01
2018-01-24T01:51:52.693Z,1015.01
2018-01-24T01:54:42.273Z,1014.99
2018-01-24T01:55:42.242Z,1014.97
2018-01-24T01:57:51.345Z,1014.96
2018-01-24T01:58:43.223Z,1014.96
2018-01-24T02:00:56.139Z,1014.87
2018-01-24T02:01:56.585Z,1014.92
2018-01-24T02:03:59.791Z,1014.89
2018-01-24T02:04:56.365Z,1014.87
2018-01-24T02:07:23.262Z,1014.86
2018-01-24T02:07:58.848Z,1014.85
2018-01-24T02:10:31.553Z,1014.88
2018-01-24T02:11:29.992Z,1014.87
2018-01-24T02:20:11.509Z,1014.85
2018-01-24T02:24:40.908Z,1014.81
2018-01-24T02:27:45.470Z,1014.77
2018-01-24T02:36:38.283Z,1014.71
2018-01-24T02:37:35.980Z,1014.69
2018-01-24T02:39:27.916Z,1014.72
2018-01-24T02:45:25.444Z,1014.62
2018-01-24T02:46:42.368Z,1014.66
2018-01-24T02:52:26.190Z,1014.57
2018-01-24T02:53:59.927Z,1014.55
2018-01-24T02:55:59.724Z,1014.52
2018-01-24T02:57:11.922Z,1014.50
2018-01-24T03:01:22.167Z,1014.52
2018-01-24T03:03:59.759Z,1014.55
2018-01-24T03:13:28.245Z,1014.55
2018-01-24T03:14:26.790Z,1014.56
2018-01-24T03:18:33.153Z,1014.47
2018-01-24T03:19:30.988Z,1014.44
2018-01-24T03:27:13.342Z,1014.42
2018-01-24T03:30:11.749Z,1014.39
2018-01-24T03:32:15.560Z,1014.39
2018-01-24T03:33:15.971Z,1014.41
2018-01-24T03:36:41.648Z,1014.42
2018-01-24T03:36:54.332Z,1014.39
2018-01-24T03:39:26.120Z,1014.34
2018-01-24T03:40:25.137Z,1014.32
2018-01-24T03:42:41.476Z,1014.28
2018-01-24T03:43:25.484Z,1014.27
2018-01-24T03:45:26.053Z,1014.24
2018-01-24T03:46:58.118Z,1014.29
2018-01-24T03:48:57.410Z,1014.24
2018-01-24T03:49:43.133Z,1014.26
2018-01-24T03:52:10.637Z,1014.25
2018-01-24T03:53:11.980Z,1014.29
2018-01-24T03:58:09.348Z,1014.30
2018-01-24T03:58:39.988Z,1014.31
2018-01-24T04:00:46.338Z,1014.22
2018-01-24T04:01:45.906Z,1014.28
2018-01-24T04:04:04.483Z,1014.24
2018-01-24T04:05:03.656Z,1014.27
2018-01-24T04:08:17.201Z,1014.20
2018-01-24T04:09:12.131Z,1014.29
2018-01-24T04:11:19.289Z,1014.31
2018-01-24T04:12:35.988Z,1014.28
2018-01-24T04:14:42.410Z,1014.27
2018-01-24T04:15:24.749Z,1014.31
2018-01-24T04:17:51.544Z,1014.28
2018-01-24T04:18:36.384Z,1014.30
2018-01-24T04:21:22.253Z,1014.27
2018-01-24T04:21:58.061Z,1014.30
2018-01-24T04:24:21.005Z,1014.28
2018-01-24T04:25:01.251Z,1014.27
2018-01-24T04:27:37.089Z,1014.29
2018-01-24T04:28:19.204Z,1014.34
2018-01-24T04:30:21.530Z,1014.33
2018-01-24T04:31:42.181Z,1014.28
2018-01-24T04:33:31.870Z,1014.32
2018-01-24T04:34:27.706Z,1014.34
2018-01-24T04:40:44.968Z,1014.24
2018-01-24T04:42:05.918Z,1014.26
2018-01-24T04:43:31.832Z,1014.21
2018-01-24T04:44:31.176Z,1014.19
2018-01-24T04:46:40.232Z,1014.18
2018-01-24T04:47:37.736Z,1014.17
2018-01-24T04:49:38.463Z,1014.17
2018-01-24T04:50:40.993Z,1014.15
2018-01-24T04:53:14.902Z,1014.16
2018-01-24T04:53:40.765Z,1014.19
2018-01-24T04:55:46.763Z,1014.21
2018-01-24T04:56:46.624Z,1014.18
2018-01-24T04:58:57.107Z,1014.20
2018-01-24T04:59:56.527Z,1014.18
2018-01-24T05:02:09.074Z,1014.14
2018-01-24T05:03:09.071Z,1014.16
2018-01-24T05:05:15.007Z,1014.16
2018-01-24T05:06:15.206Z,1014.13
2018-01-24T05:08:17.468Z,1014.09
2018-01-24T05:09:16.334Z,1014.09
2018-01-24T05:11:27.570Z,1014.10
2018-01-24T05:12:26.419Z,1014.14
2018-01-24T05:18:07.822Z,1014.19
2018-01-24T05:19:05.176Z,1014.18
2018-01-24T05:21:20.775Z,1014.19
2018-01-24T05:22:33.514Z,1014.23
2018-01-24T05:24:17.984Z,1014.26
2018-01-24T05:25:19.413Z,1014.22
2018-01-24T05:27:44.091Z,1014.17
2018-01-24T05:28:27.770Z,1014.17
2018-01-24T05:30:38.780Z,1014.19
2018-01-24T05:31:53.857Z,1014.17
2018-01-24T05:33:39.818Z,1014.20
2018-01-24T05:37:33.731Z,1014.14
2018-01-24T05:40:25.543Z,1014.16
2018-01-24T05:42:47.232Z,1014.16
2018-01-24T05:45:41.555Z,1014.21
2018-01-24T05:58:23.542Z,1014.04
2018-01-24T06:01:04.576Z,1014.04
2018-01-24T06:02:03.938Z,1014.09
2018-01-24T06:05:40.549Z,1014.04
2018-01-24T06:05:42.294Z,1014.07
2018-01-24T06:07:48.181Z,1014.02
2018-01-24T06:08:44.341Z,1014.00
2018-01-24T06:11:42.230Z,1014.04
2018-01-24T06:12:17.904Z,1014.05
2018-01-24T06:14:38.790Z,1014.06
2018-01-24T06:17:05.419Z,1014.13
2018-01-24T06:22:26.418Z,1014.11
2018-01-24T06:24:44.209Z,1014.10
2018-01-24T06:25:23.468Z,1014.07
2018-01-24T06:38:22.782Z,1013.99
2018-01-24T06:50:01.286Z,1013.89
2018-01-24T06:51:01.438Z,1013.86
2018-01-24T06:55:53.419Z,1013.96
2018-01-24T06:56:32.846Z,1013.98
2018-01-24T07:00:18.312Z,1013.99
2018-01-24T07:01:05.066Z,1014.01
2018-01-24T07:04:02.680Z,1014.04
2018-01-24T07:04:59.684Z,1014.02
2018-01-24T07:22:11.737Z,1014.06
2018-01-24T07:23:11.209Z,1014.10
2018-01-24T07:25:10.607Z,1014.01
2018-01-24T07:26:08.628Z,1014.08
2018-01-24T07:28:07.079Z,1013.99
2018-01-24T07:29:07.605Z,1014.01
2018-01-24T07:31:04.761Z,1014.02
2018-01-24T07:32:04.769Z,1014.04
2018-01-24T07:50:14.237Z,1014.01
2018-01-24T07:51:13.826Z,1014.01
2018-01-24T07:53:14.317Z,1013.97
2018-01-24T07:54:14.156Z,1013.93
2018-01-24T07:56:19.521Z,1013.86
2018-01-24T07:57:19.221Z,1013.86
2018-01-24T07:59:15.446Z,1013.83
2018-01-24T08:00:14.666Z,1013.81
2018-01-24T08:02:12.607Z,1013.78
2018-01-24T08:03:12.599Z,1013.72
2018-01-24T08:05:10.499Z,1013.72
2018-01-24T08:06:09.977Z,1013.72
2018-01-24T08:08:07.925Z,1013.70
2018-01-24T08:09:06.434Z,1013.69
2018-01-24T08:11:02.394Z,1013.71
2018-01-24T08:12:01.892Z,1013.68
2018-01-24T08:14:02.338Z,1013.67
2018-01-24T08:15:02.320Z,1013.66
2018-01-24T08:16:59.271Z,1013.69
2018-01-24T08:17:58.357Z,1013.67
2018-01-24T08:19:57.272Z,1013.65
2018-01-24T08:20:56.387Z,1013.62
2018-01-24T08:22:55.345Z,1013.66
2018-01-24T08:23:54.338Z,1013.67
2018-01-24T08:25:52.797Z,1013.64
2018-01-24T08:26:52.293Z,1013.62
2018-01-24T08:28:50.263Z,1013.63
2018-01-24T08:29:50.245Z,1013.66
2018-01-24T08:31:46.703Z,1013.62
2018-01-24T08:32:46.718Z,1013.64
2018-01-24T08:34:46.780Z,1013.66
2018-01-24T08:35:46.682Z,1013.59
2018-01-24T08:37:45.613Z,1013.64
2018-01-24T08:38:45.588Z,1013.61
2018-01-24T08:40:43.686Z,1013.61
2018-01-24T08:41:43.646Z,1013.57
2018-01-24T08:43:41.260Z,1013.54
2018-01-24T08:44:40.642Z,1013.54
2018-01-24T08:46:44.021Z,1013.51
2018-01-24T08:47:42.134Z,1013.50
2018-01-24T08:49:40.088Z,1013.49
2018-01-24T08:50:39.553Z,1013.47
2018-01-24T08:52:39.569Z,1013.45
2018-01-24T08:53:40.550Z,1013.36
2018-01-24T08:55:38.988Z,1013.38
2018-01-24T08:56:37.455Z,1013.45
2018-01-24T08:58:37.924Z,1013.42
2018-01-24T08:59:35.417Z,1013.38
2018-01-24T09:01:33.390Z,1013.41
2018-01-24T09:02:34.413Z,1013.41
2018-01-24T09:04:31.827Z,1013.41
2018-01-24T09:05:31.316Z,1013.40
2018-01-24T09:07:29.358Z,1013.38
2018-01-24T09:08:29.260Z,1013.43
2018-01-24T09:10:29.754Z,1013.37
2018-01-24T09:11:30.255Z,1013.38
2018-01-24T09:13:28.688Z,1013.40
2018-01-24T09:14:27.674Z,1013.34
2018-01-24T09:16:29.701Z,1013.38
2018-01-24T09:17:28.677Z,1013.36
2018-01-24T09:19:30.093Z,1013.36
2018-01-24T09:20:28.552Z,1013.36
2018-01-24T09:22:29.024Z,1013.32
2018-01-24T09:23:29.060Z,1013.35
2018-01-24T09:25:29.494Z,1013.34
2018-01-24T09:26:29.506Z,1013.30
2018-01-24T09:28:31.396Z,1013.36
2018-01-24T09:29:29.897Z,1013.33
2018-01-24T09:31:30.522Z,1013.29
2018-01-24T09:32:30.334Z,1013.19
2018-01-24T09:34:28.865Z,1013.22
2018-01-24T09:35:29.783Z,1013.23
2018-01-24T09:37:28.738Z,1013.17
2018-01-24T09:38:26.901Z,1013.17
2018-01-24T09:40:24.844Z,1013.17
2018-01-24T09:41:26.365Z,1013.16
2018-01-24T09:43:22.805Z,1013.10
2018-01-24T09:44:23.342Z,1013.14
2018-01-24T09:46:21.247Z,1013.13
2018-01-24T09:47:21.743Z,1013.12
2018-01-24T09:49:16.824Z,1013.14
2018-01-24T09:50:16.795Z,1013.10
2018-01-24T09:52:15.265Z,1013.06
2018-01-24T09:53:14.860Z,1013.05
2018-01-24T09:55:12.988Z,1013.00
2018-01-24T09:56:12.987Z,1012.96
2018-01-24T09:58:11.990Z,1013.08
2018-01-24T09:59:11.108Z,1013.09
2018-01-24T10:01:09.176Z,1013.06
2018-01-24T10:02:09.172Z,1013.10
2018-01-24T10:04:07.140Z,1013.06
2018-01-24T10:05:07.112Z,1013.08
2018-01-24T10:07:05.572Z,1013.05
2018-01-24T10:08:05.054Z,1013.03
2018-01-24T10:10:03.022Z,1013.04
2018-01-24T10:11:03.037Z,1013.03
2018-01-24T10:13:01.120Z,1013.01
2018-01-24T10:14:01.082Z,1012.98
2018-01-24T10:15:57.064Z,1012.97
2018-01-24T10:16:57.569Z,1012.97
2018-01-24T10:18:55.497Z,1012.96
2018-01-24T10:19:55.000Z,1013.00
2018-01-24T10:21:50.908Z,1013.01
2018-01-24T10:22:50.894Z,1012.97
2018-01-24T10:24:48.982Z,1012.97
2018-01-24T10:25:49.023Z,1013.00
2018-01-24T10:27:47.982Z,1013.03
2018-01-24T10:28:48.107Z,1012.98
2018-01-24T10:30:47.120Z,1013.00
2018-01-24T10:31:46.606Z,1012.95
2018-01-24T10:33:48.710Z,1013.00
2018-01-24T10:34:47.138Z,1012.95
2018-01-24T10:36:47.695Z,1012.92
2018-01-24T10:37:47.632Z,1012.95
2018-01-24T10:40:00.365Z,1012.87
2018-01-24T10:40:58.365Z,1012.85
2018-01-24T10:43:00.560Z,1012.84
2018-01-24T10:44:01.621Z,1012.81
2018-01-24T10:46:04.995Z,1012.76
2018-01-24T10:47:02.904Z,1012.76
2018-01-24T10:49:05.804Z,1012.78
2018-01-24T10:50:05.360Z,1012.78
2018-01-24T10:52:06.724Z,1012.68
2018-01-24T10:53:04.731Z,1012.67
2018-01-24T10:55:05.255Z,1012.64
2018-01-24T10:56:05.270Z,1012.65
2018-01-24T10:58:06.171Z,1012.59
2018-01-24T10:59:06.030Z,1012.56
2018-01-24T11:06:59.797Z,1012.39
2018-01-24T11:07:59.809Z,1012.37
2018-01-24T11:10:01.168Z,1012.34
2018-01-24T11:11:01.143Z,1012.35
2018-01-24T11:18:00.124Z,1012.30
2018-01-24T11:18:59.306Z,1012.21
2018-01-24T11:21:03.593Z,1012.20
2018-01-24T11:22:00.662Z,1012.18
2018-01-24T11:24:05.646Z,1012.15
2018-01-24T11:25:04.676Z,1012.15
2018-01-24T11:27:08.986Z,1012.10
2018-01-24T11:28:06.838Z,1012.08
2018-01-24T11:30:21.784Z,1012.05
2018-01-24T11:31:20.215Z,1012.04
2018-01-24T11:33:25.099Z,1011.93
2018-01-24T11:34:25.191Z,1011.93
2018-01-24T11:36:27.898Z,1011.92
2018-01-24T11:37:26.903Z,1011.81
2018-01-24T11:40:17.202Z,1011.78
2018-01-24T11:41:18.492Z,1011.75
2018-01-24T11:43:26.735Z,1011.75
2018-01-24T11:46:16.344Z,1011.63
2018-01-24T11:46:53.111Z,1011.70
2018-01-24T11:49:01.867Z,1011.68
2018-01-24T11:50:01.265Z,1011.60
2018-01-24T11:52:14.915Z,1011.61
2018-01-24T11:53:17.250Z,1011.61
2018-01-24T11:55:22.455Z,1011.57
2018-01-24T11:57:48.128Z,1011.53
2018-01-24T11:59:01.859Z,1011.50
2018-01-24T12:00:47.075Z,1011.49
2018-01-24T12:01:47.296Z,1011.48
2018-01-24T12:03:58.714Z,1011.42
2018-01-24T12:04:58.335Z,1011.40
2018-01-24T12:07:00.811Z,1011.35
2018-01-24T12:08:00.637Z,1011.41
2018-01-24T12:10:01.628Z,1011.37
2018-01-24T12:11:01.072Z,1011.39
2018-01-24T12:13:03.151Z,1011.31
2018-01-24T12:14:03.159Z,1011.29
2018-01-24T12:16:07.894Z,1011.21
2018-01-24T12:17:06.174Z,1011.28
2018-01-24T12:19:07.033Z,1011.30
2018-01-24T12:20:06.510Z,1011.28
2018-01-24T12:22:07.436Z,1011.19
2018-01-24T12:23:06.936Z,1011.17
2018-01-24T12:25:08.265Z,1011.18
2018-01-24T12:26:07.352Z,1011.15
2018-01-24T12:28:08.814Z,1011.11
2018-01-24T12:29:08.349Z,1011.18
2018-01-24T12:31:09.337Z,1011.11
2018-01-24T12:32:08.770Z,1011.02
2018-01-24T12:34:04.267Z,1011.07
2018-01-24T12:35:05.215Z,1011.01
2018-01-24T12:37:03.200Z,1010.95
2018-01-24T12:38:02.208Z,1010.94
2018-01-24T12:40:02.142Z,1010.91
2018-01-24T12:41:01.560Z,1010.87
2018-01-24T12:42:59.021Z,1010.84
2018-01-24T12:43:58.265Z,1010.78
2018-01-24T12:45:59.700Z,1010.81
2018-01-24T12:46:58.674Z,1010.73
2018-01-24T12:48:57.211Z,1010.80
2018-01-24T12:49:56.792Z,1010.73
2018-01-24T12:51:57.741Z,1010.73
2018-01-24T12:52:55.775Z,1010.70
2018-01-24T12:54:53.302Z,1010.62
2018-01-24T12:55:52.784Z,1010.62
2018-01-24T12:57:49.757Z,1010.63
2018-01-24T12:58:48.750Z,1010.62
2018-01-24T13:00:46.809Z,1010.57
2018-01-24T13:01:47.240Z,1010.53
2018-01-24T13:03:42.647Z,1010.47
2018-01-24T13:04:43.590Z,1010.50
2018-01-24T13:06:39.609Z,1010.39
2018-01-24T13:07:38.601Z,1010.37
2018-01-24T13:09:34.557Z,1010.36
2018-01-24T13:10:35.593Z,1010.30
2018-01-24T13:12:30.532Z,1010.22
2018-01-24T13:13:32.039Z,1010.22
2018-01-24T13:15:26.506Z,1010.20
2018-01-24T13:16:26.456Z,1010.27
2018-01-24T13:18:24.960Z,1010.21
2018-01-24T13:19:24.951Z,1010.20
2018-01-24T13:21:23.948Z,1010.23
2018-01-24T13:22:22.496Z,1010.25
2018-01-24T13:24:20.452Z,1010.24
2018-01-24T13:25:20.436Z,1010.30
2018-01-24T13:27:18.910Z,1010.19
2018-01-24T13:28:18.898Z,1010.22
2018-01-24T13:30:18.850Z,1010.07
2018-01-24T13:31:16.481Z,1010.06
2018-01-24T13:33:12.948Z,1010.15
2018-01-24T13:34:12.433Z,1010.01
2018-01-24T13:36:08.921Z,1010.05
2018-01-24T13:37:08.435Z,1009.99
2018-01-24T13:39:06.934Z,1010.00
2018-01-24T13:40:06.502Z,1009.97
2018-01-24T13:42:04.508Z,1009.93
2018-01-24T13:43:05.495Z,1009.92
2018-01-24T13:45:06.477Z,1009.90
2018-01-24T13:46:05.471Z,1009.86
2018-01-24T13:48:01.912Z,1009.87
2018-01-24T13:49:01.396Z,1009.88
2018-01-24T13:51:00.865Z,1009.75
2018-01-24T13:51:58.956Z,1009.80
2018-01-24T13:53:56.948Z,1009.74
2018-01-24T13:54:56.931Z,1009.71
2018-01-24T13:56:54.967Z,1009.75
2018-01-24T13:57:54.992Z,1009.65
2018-01-24T13:59:52.950Z,1009.69
2018-01-24T14:00:52.918Z,1009.72
2018-01-24T14:02:49.372Z,1009.71
2018-01-24T14:03:48.856Z,1009.69
2018-01-24T14:05:44.803Z,1009.66
2018-01-24T14:06:44.812Z,1009.68
2018-01-24T14:08:40.781Z,1009.64
2018-01-24T14:09:40.775Z,1009.62
2018-01-24T14:11:37.227Z,1009.64
2018-01-24T14:12:36.767Z,1009.56
2018-01-24T14:14:32.652Z,1009.54
2018-01-24T14:15:33.536Z,1009.58
2018-01-24T14:17:29.649Z,1009.52
2018-01-24T14:18:29.635Z,1009.58
2018-01-24T14:20:24.610Z,1009.50
2018-01-24T14:21:25.093Z,1009.47
2018-01-24T14:23:22.516Z,1009.45
2018-01-24T14:24:22.536Z,1009.49
2018-01-24T14:26:20.597Z,1009.43
2018-01-24T14:27:20.617Z,1009.40
2018-01-24T14:29:17.054Z,1009.40
2018-01-24T14:30:16.541Z,1009.43
2018-01-24T14:32:12.993Z,1009.39
2018-01-24T14:33:12.614Z,1009.42
2018-01-24T14:35:09.347Z,1009.41
2018-01-24T14:36:08.916Z,1009.43
2018-01-24T14:38:04.376Z,1009.34
2018-01-24T14:39:05.367Z,1009.40
2018-01-24T14:41:00.375Z,1009.37
2018-01-24T14:42:00.359Z,1009.34
2018-01-24T14:43:56.327Z,1009.37
2018-01-24T14:44:56.809Z,1009.36
2018-01-24T14:46:52.251Z,1009.33
2018-01-24T14:49:13.594Z,1009.34
2018-01-24T14:50:11.497Z,1009.30
2018-01-24T14:53:07.979Z,1009.19
2018-01-24T14:55:13.691Z,1009.15
2018-01-24T14:56:07.145Z,1009.22
2018-01-24T14:58:03.150Z,1009.14
2018-01-24T14:59:04.036Z,1009.22
2018-01-24T15:01:01.568Z,1009.29
2018-01-24T15:02:01.615Z,1009.19
2018-01-24T15:03:57.065Z,1009.21
2018-01-24T15:04:56.997Z,1009.17
2018-01-24T15:06:52.939Z,1009.21
2018-01-24T15:07:52.960Z,1009.20
2018-01-24T15:09:50.961Z,1009.23
2018-01-24T15:10:52.923Z,1009.19
2018-01-24T15:12:47.392Z,1009.20
2018-01-24T15:13:47.377Z,1009.20
2018-01-24T15:15:46.355Z,1009.25
2018-01-24T15:16:45.869Z,1009.26
2018-01-24T15:18:40.949Z,1009.26
2018-01-24T15:19:40.892Z,1009.25
2018-01-24T15:21:38.344Z,1009.33
2018-01-24T15:22:36.815Z,1009.29
2018-01-24T15:24:32.932Z,1009.25
2018-01-24T15:25:32.933Z,1009.27
2018-01-24T15:27:28.918Z,1009.33
2018-01-24T15:28:28.989Z,1009.29
2018-01-24T15:30:25.354Z,1009.25
2018-01-24T15:31:25.357Z,1009.27
2018-01-24T15:33:21.309Z,1009.27
2018-01-24T15:34:21.315Z,1009.29
2018-01-24T15:36:16.741Z,1009.28
2018-01-24T15:37:16.763Z,1009.21
2018-01-24T15:39:16.707Z,1009.26
2018-01-24T15:40:14.684Z,1009.28
2018-01-24T15:42:14.158Z,1009.22
2018-01-24T15:43:13.638Z,1009.23
2018-01-24T15:45:11.757Z,1009.26
2018-01-24T15:46:10.906Z,1009.28
2018-01-24T15:48:06.773Z,1009.24
2018-01-24T15:49:07.262Z,1009.34
2018-01-24T15:51:06.663Z,1009.26
2018-01-24T15:52:05.241Z,1009.26
2018-01-24T15:54:03.224Z,1009.26
2018-01-24T15:55:03.668Z,1009.28
2018-01-24T15:57:00.824Z,1009.26
2018-01-24T15:58:00.829Z,1009.24
2018-01-24T15:59:59.271Z,1009.19
2018-01-24T16:00:58.742Z,1009.17
2018-01-24T16:02:55.775Z,1009.09
2018-01-24T16:03:54.721Z,1009.10
2018-01-24T16:05:51.181Z,1009.10
2018-01-24T16:06:50.677Z,1009.15
2018-01-24T16:08:46.686Z,1009.09
2018-01-24T16:09:47.647Z,1009.10
2018-01-24T16:11:44.569Z,1009.06
2018-01-24T16:12:44.564Z,1009.07
2018-01-24T16:14:40.520Z,1009.09
2018-01-24T16:15:41.024Z,1009.09
2018-01-24T16:17:36.968Z,1008.98
2018-01-24T16:18:36.453Z,1009.01
2018-01-24T16:20:35.930Z,1008.98
2018-01-24T16:21:34.398Z,1008.98
2018-01-24T16:23:33.895Z,1008.97
2018-01-24T16:24:32.870Z,1008.88
2018-01-24T16:26:32.848Z,1008.91
2018-01-24T16:27:32.815Z,1008.88
2018-01-24T16:29:32.864Z,1008.88
2018-01-24T16:30:30.746Z,1008.82
2018-01-24T16:32:29.237Z,1008.85
2018-01-24T16:33:29.218Z,1008.81
2018-01-24T16:35:30.656Z,1008.80
2018-01-24T16:36:29.150Z,1008.78
2018-01-24T16:38:28.102Z,1008.80
2018-01-24T16:39:27.133Z,1008.82
2018-01-24T16:41:28.687Z,1008.85
2018-01-24T16:42:29.532Z,1008.90
2018-01-24T16:44:29.090Z,1008.91
2018-01-24T16:45:26.728Z,1008.88
2018-01-24T16:47:27.173Z,1008.90
2018-01-24T16:48:26.263Z,1008.91
2018-01-24T16:50:27.240Z,1008.91
2018-01-24T16:51:26.736Z,1008.91
2018-01-24T16:53:28.213Z,1008.83
2018-01-24T16:54:27.770Z,1008.86
2018-01-24T16:56:28.205Z,1008.84
2018-01-24T16:57:25.528Z,1008.85
2018-01-24T16:59:23.344Z,1008.92
2018-01-24T17:00:24.301Z,1008.81
2018-01-24T17:02:22.240Z,1008.90
2018-01-24T17:03:22.202Z,1008.81
2018-01-24T17:05:20.738Z,1008.79
2018-01-24T17:06:20.699Z,1008.82
2018-01-24T17:08:16.621Z,1008.82
2018-01-24T17:09:16.125Z,1008.82
2018-01-24T17:11:14.590Z,1008.80
2018-01-24T17:12:14.216Z,1008.82
2018-01-24T17:14:15.221Z,1008.85
2018-01-24T17:15:14.780Z,1008.83
2018-01-24T17:17:16.114Z,1008.79
2018-01-24T17:18:16.608Z,1008.76
2018-01-24T17:20:16.057Z,1008.83
2018-01-24T17:21:15.634Z,1008.80
2018-01-24T17:23:17.513Z,1008.84
2018-01-24T17:24:17.017Z,1008.83
2018-01-24T17:26:16.536Z,1008.83
2018-01-24T17:27:17.534Z,1008.85
2018-01-24T17:29:16.535Z,1008.84
2018-01-24T17:30:15.519Z,1008.91
2018-01-24T17:32:14.665Z,1008.83
2018-01-24T17:33:13.590Z,1008.83
2018-01-24T17:35:13.830Z,1008.75
2018-01-24T17:36:13.891Z,1008.79
2018-01-24T17:38:14.803Z,1008.82
2018-01-24T17:39:14.800Z,1008.72
2018-01-24T17:41:15.323Z,1008.73
2018-01-24T17:42:16.293Z,1008.74
2018-01-24T17:44:16.134Z,1008.74
2018-01-24T17:45:16.115Z,1008.79
2018-01-24T17:47:15.074Z,1008.78
2018-01-24T17:48:14.056Z,1008.81
2018-01-24T17:50:13.525Z,1008.78
2018-01-24T17:51:13.015Z,1008.72
2018-01-24T17:53:12.656Z,1008.57
2018-01-24T17:54:12.610Z,1008.61
2018-01-24T17:56:14.621Z,1008.56
2018-01-24T17:57:14.005Z,1008.55
2018-01-24T17:59:12.874Z,1008.51
2018-01-24T18:00:12.033Z,1008.51
2018-01-24T18:02:42.113Z,1008.45
2018-01-24T18:04:59.256Z,1008.43
2018-01-24T18:05:59.798Z,1008.43
2018-01-24T18:07:56.205Z,1008.38
2018-01-24T18:08:56.097Z,1008.34
2018-01-24T18:11:05.370Z,1008.24
2018-01-24T18:12:05.142Z,1008.28
2018-01-24T18:14:03.374Z,1008.23
2018-01-24T18:15:02.353Z,1008.22
2018-01-24T18:17:01.385Z,1008.24
2018-01-24T18:18:00.423Z,1008.22
2018-01-24T18:19:58.392Z,1008.12
2018-01-24T18:20:58.346Z,1008.12
2018-01-24T18:22:54.339Z,1008.06
2018-01-24T18:23:54.310Z,1008.06
2018-01-24T18:25:50.264Z,1008.11
2018-01-24T18:26:50.245Z,1008.03
2018-01-24T18:28:49.216Z,1008.04
2018-01-24T18:29:48.280Z,1007.95
2018-01-24T18:31:49.245Z,1008.04
2018-01-24T18:32:49.204Z,1007.99
2018-01-24T18:34:47.632Z,1008.00
2018-01-24T18:35:47.140Z,1007.98
2018-01-24T18:37:44.592Z,1008.00
2018-01-24T18:38:45.054Z,1007.95
2018-01-24T18:40:43.013Z,1007.95
2018-01-24T18:41:42.500Z,1007.90
2018-01-24T18:43:42.009Z,1007.93
2018-01-24T18:44:40.524Z,1007.91
2018-01-24T18:46:38.529Z,1007.87
2018-01-24T18:47:38.463Z,1007.87
2018-01-24T18:49:35.968Z,1007.80
2018-01-24T18:50:34.450Z,1007.80
2018-01-24T18:52:33.378Z,1007.86
2018-01-24T18:53:32.922Z,1007.80
2018-01-24T18:55:30.786Z,1007.79
2018-01-24T18:56:31.789Z,1007.78
2018-01-24T18:58:30.258Z,1007.71
2018-01-24T18:59:28.255Z,1007.72
2018-01-24T19:01:27.798Z,1007.75
2018-01-24T19:02:26.306Z,1007.71
2018-01-24T19:04:24.332Z,1007.67
2018-01-24T19:05:24.347Z,1007.67
2018-01-24T19:07:23.229Z,1007.65
2018-01-24T19:08:22.203Z,1007.68
2018-01-24T19:10:19.217Z,1007.74
2018-01-24T19:11:18.206Z,1007.76
2018-01-24T19:13:16.264Z,1007.76
2018-01-24T19:14:16.676Z,1007.77
2018-01-24T19:16:16.684Z,1007.82
2018-01-24T19:17:17.084Z,1007.82
2018-01-24T19:19:15.526Z,1007.82
2018-01-24T19:20:14.593Z,1007.80
2018-01-24T19:22:15.971Z,1007.76
2018-01-24T19:23:15.458Z,1007.80
2018-01-24T19:25:13.381Z,1007.77
2018-01-24T19:26:12.999Z,1007.83
2018-01-24T19:28:11.488Z,1007.83
2018-01-24T19:29:10.965Z,1007.74
2018-01-24T19:31:09.883Z,1007.88
2018-01-24T19:32:08.900Z,1007.80
2018-01-24T19:34:06.872Z,1007.88
2018-01-24T19:35:06.876Z,1007.83
2018-01-24T19:37:04.830Z,1007.85
2018-01-24T19:38:05.332Z,1007.85
2018-01-24T19:40:00.770Z,1007.86
2018-01-24T19:41:02.261Z,1007.86
2018-01-24T19:42:56.695Z,1007.88
2018-01-24T19:43:56.810Z,1007.88
2018-01-24T19:45:55.148Z,1007.89
2018-01-24T19:46:54.686Z,1007.80
2018-01-24T19:48:52.611Z,1007.83
2018-01-24T19:49:53.096Z,1007.80
2018-01-24T19:51:50.496Z,1007.91
2018-01-24T19:52:50.569Z,1007.89
2018-01-24T19:54:48.484Z,1007.88
2018-01-24T19:55:49.375Z,1007.87
2018-01-24T19:57:44.438Z,1007.85
2018-01-24T19:58:44.381Z,1007.87
2018-01-24T20:00:42.480Z,1007.90
2018-01-24T20:01:42.452Z,1007.89
2018-01-24T20:03:41.130Z,1007.83
2018-01-24T20:04:40.380Z,1007.81
2018-01-24T20:06:38.383Z,1007.88
2018-01-24T20:07:39.352Z,1007.80
2018-01-24T20:09:37.331Z,1007.77
2018-01-24T20:10:37.336Z,1007.74
2018-01-24T20:12:32.404Z,1007.69
2018-01-24T20:13:32.866Z,1007.72
2018-01-24T20:15:31.833Z,1007.72
2018-01-24T20:16:31.361Z,1007.61
2018-01-24T20:18:27.376Z,1007.59
2018-01-24T20:19:26.471Z,1007.52
2018-01-24T20:21:24.371Z,1007.54
2018-01-24T20:22:25.878Z,1007.51
2018-01-24T20:24:22.791Z,1007.44
2018-01-24T20:25:23.812Z,1007.43
2018-01-24T20:27:20.298Z,1007.45
2018-01-24T20:28:20.217Z,1007.49
2018-01-24T20:30:21.757Z,1007.46
2018-01-24T20:31:20.753Z,1007.40
2018-01-24T20:33:21.775Z,1007.32
2018-01-24T20:34:25.723Z,1007.39
2018-01-24T20:36:17.149Z,1007.35
2018-01-24T20:37:17.187Z,1007.36
2018-01-24T20:39:16.094Z,1007.35
2018-01-24T20:40:15.577Z,1007.43
2018-01-24T20:42:11.139Z,1007.39
2018-01-24T20:43:12.002Z,1007.43
2018-01-24T20:45:08.996Z,1007.52
2018-01-24T20:46:08.976Z,1007.48
2018-01-24T20:48:04.914Z,1007.49
2018-01-24T20:49:04.956Z,1007.49
2018-01-24T20:51:00.885Z,1007.53
2018-01-24T20:52:01.470Z,1007.51
2018-01-24T20:53:58.909Z,1007.49
2018-01-24T20:54:58.912Z,1007.53
2018-01-24T20:56:56.994Z,1007.57
2018-01-24T20:57:58.931Z,1007.51
2018-01-24T20:59:55.962Z,1007.55
2018-01-24T21:00:55.466Z,1007.53